Time;durP1;ratioP1;P1;durP2;ratioP2;P2;SDS_P1;SDS_P2;PMS_P1;PMS_P2;Temp;Humidity;BMP_temperature;BMP_pressure;BME280_temperature;BME280_humidity;BME280_pressure;Samples;Min_cycle;Max_cycle;Signal;HPM_P1;HPM_P2
2022/05/27 00:01:11;;;;;;;1.00;1.00;;;;;;;8.31;59.56;97648.84;5032621;28;20113;-66
2022/05/27 00:03:37;;;;;;;5.07;1.15;;;;;;;8.35;59.40;97654.66;5033123;28;20504;-66
2022/05/27 00:06:03;;;;;;;0.30;0.30;;;;;;;8.39;59.36;97653.91;5022029;28;20045;-65
2022/05/27 00:08:29;;;;;;;1.38;1.27;;;;;;;8.42;59.37;97655.31;5013200;28;20572;-67
2022/05/27 00:10:56;;;;;;;2.20;0.95;;;;;;;8.46;59.28;97655.69;5025241;28;20124;-67
2022/05/27 00:13:23;;;;;;;0.57;0.57;;;;;;;8.51;59.35;97653.00;5012865;28;20073;-68
2022/05/27 00:15:48;;;;;;;1.30;0.85;;;;;;;8.56;59.19;97666.78;5012329;28;20037;-68
2022/05/27 00:18:54;;;;;;;1.05;0.95;;;;;;;8.63;59.17;97659.22;5015663;28;20040;-67
2022/05/27 00:21:59;;;;;;;1.88;1.38;;;;;;;8.67;59.09;97659.53;5023253;28;20507;-66
2022/05/27 00:24:44;;;;;;;;;;;;;;;8.69;59.01;97655.50;5025525;28;20034;-67
2022/05/27 00:37:59;;;;;;;0.63;0.63;;;;;;;9.16;58.23;97645.16;5015632;28;20052;-68
2022/05/27 00:41:05;;;;;;;0.32;0.32;;;;;;;9.34;57.87;97639.38;5016494;28;20030;-68
2022/05/27 00:43:50;;;;;;;;;;;;;;;9.46;57.69;97639.22;5013339;28;20034;-67
2022/05/27 00:50:23;;;;;;;0.40;0.40;;;;;;;10.00;56.41;97627.47;5014768;28;20141;-66
2022/05/27 00:53:28;;;;;;;0.20;0.20;;;;;;;10.57;55.25;97630.69;5013538;28;20037;-67
2022/05/27 00:56:14;;;;;;;;;;;;;;;11.02;54.45;97624.63;5012767;28;20065;-66
2022/05/27 00:59:19;;;;;;;0.45;0.45;;;;;;;11.63;53.17;97630.63;5011802;28;19917;-65
2022/05/27 01:02:04;;;;;;;;;;;;;;;12.03;52.34;97626.38;5012909;28;20095;-65
2022/05/27 01:08:33;;;;;;;0.30;0.30;;;;;;;11.73;53.68;97625.16;5014097;28;20431;-65
2022/05/27 01:11:22;;;;;;;;;;;;;;;11.88;53.64;97627.97;5020789;28;20120;-65
2022/05/27 01:13:54;;;;;;;0.20;0.20;;;;;;;11.87;53.76;97623.56;5027978;28;19928;-67
2022/05/27 01:23:20;;;;;;;0.20;0.20;;;;;;;12.56;52.34;97617.84;5012450;28;20049;-62
2022/05/27 01:26:05;;;;;;;0.60;0.43;;;;;;;13.40;50.91;97623.69;5012178;28;20084;-64
2022/05/27 01:28:56;;;;;;;0.20;0.20;;;;;;;13.85;50.23;97618.19;5012189;28;20034;-64
2022/05/27 01:34:38;;;;;;;0.20;0.20;;;;;;;16.54;45.61;97620.41;4994156;28;20057;-64
2022/05/27 01:37:52;;;;;;;0.10;0.10;;;;;;;17.55;44.26;97614.38;4993012;28;20408;-66
2022/05/27 01:40:44;;;;;;;0.20;0.20;;;;;;;17.72;44.69;97614.56;4989698;28;20112;-65
2022/05/27 01:44:07;;;;;;;0.32;0.32;;;;;;;18.78;43.37;97614.28;4993163;28;20030;-66
2022/05/27 01:47:13;;;;;;;0.55;0.43;;;;;;;20.25;41.56;97617.09;4992844;28;20453;-67
2022/05/27 01:50:21;;;;;;;0.10;0.10;;;;;;;21.16;40.78;97608.75;5024217;28;20080;-66
2022/05/27 01:53:25;;;;;;;0.20;0.20;;;;;;;22.78;39.06;97605.88;4992045;28;20034;-67
2022/05/27 01:57:03;;;;;;;0.10;0.10;;;;;;;25.36;36.19;97601.78;4992578;28;20097;-67
2022/05/27 02:04:03;;;;;;;0.30;0.30;;;;;;;27.38;35.38;97611.78;4994402;28;20069;-63
2022/05/27 02:07:27;;;;;;;0.28;0.28;;;;;;;27.04;36.51;97608.72;4992181;28;20046;-69
2022/05/27 02:13:54;;;;;;;0.10;0.10;;;;;;;26.27;38.42;97618.00;5012041;28;20065;-66
2022/05/27 02:23:29;;;;;;;0.10;0.10;;;;;;;26.19;38.99;97609.41;5018771;28;20171;-67
2022/05/27 02:29:58;;;;;;;0.10;0.10;;;;;;;26.57;38.40;97604.16;4998144;28;20105;-67
2022/05/27 02:36:27;;;;;;;2.22;0.43;;;;;;;23.56;43.39;97604.97;4995899;28;20563;-66
2022/05/27 02:39:32;;;;;;;0.10;0.10;;;;;;;23.24;43.17;97603.88;4996157;28;20117;-66
2022/05/27 02:42:30;;;;;;;0.17;0.17;;;;;;;23.08;43.25;97606.50;4994523;28;20054;-65
2022/05/27 02:45:28;;;;;;;0.10;0.10;;;;;;;22.16;44.43;97613.97;4995858;28;20030;-68
2022/05/27 02:48:03;;;;;;;0.32;0.32;;;;;;;20.46;46.97;97606.09;4997309;28;20481;-65
2022/05/27 02:51:06;;;;;;;0.15;0.15;;;;;;;19.41;48.52;97605.94;4995839;28;20414;-66
2022/05/27 02:53:55;;;;;;;0.30;0.30;;;;;;;18.67;49.35;97608.19;4995157;28;20045;-65
2022/05/27 03:00:24;;;;;;;0.10;0.10;;;;;;;17.81;49.68;97614.66;4995033;28;20045;-66
2022/05/27 03:06:51;;;;;;;0.28;0.28;;;;;;;18.09;47.82;97611.84;5005051;28;20057;-66
2022/05/27 03:09:42;;;;;;;1.75;0.40;;;;;;;18.28;46.80;97609.69;5014210;28;20508;-66
2022/05/27 03:12:36;;;;;;;0.10;0.10;;;;;;;18.98;45.06;97604.63;5015136;28;20034;-68
2022/05/27 03:15:08;;;;;;;0.20;0.20;;;;;;;19.38;44.31;97612.97;5050926;28;20139;-66
2022/05/27 03:17:58;;;;;;;0.20;0.20;;;;;;;19.60;43.66;97611.25;5019993;28;20049;-67
2022/05/27 03:20:43;;;;;;;0.22;0.22;;;;;;;20.29;42.44;97607.75;5014140;28;20041;-65
2022/05/27 03:23:17;;;;;;;;;;;;;;;20.77;41.72;97605.06;5005594;28;20038;-63
2022/05/27 03:25:54;;;;;;;0.20;0.20;;;;;;;21.42;40.77;97594.69;4994663;28;20368;-67
2022/05/27 03:28:36;;;;;;;0.30;0.30;;;;;;;23.16;38.37;97599.19;5007901;28;20137;-68
2022/05/27 03:31:37;;;;;;;0.35;0.35;;;;;;;25.56;35.21;97599.09;5014102;28;20109;-65
2022/05/27 03:34:19;;;;;;;0.10;0.10;;;;;;;27.47;32.95;97594.59;5006222;28;20057;-65
2022/05/27 03:37:23;;;;;;;0.20;0.20;;;;;;;29.18;31.36;97596.50;5016151;28;20403;-66
2022/05/27 03:40:08;;;;;;;0.22;0.20;;;;;;;30.22;31.25;97594.53;5018558;28;20060;-65
2022/05/27 03:42:36;;;;;;;0.13;0.13;;;;;;;31.09;30.36;97594.94;5014114;28;20090;-65
2022/05/27 03:45:05;;;;;;;0.10;0.10;;;;;;;32.07;30.07;97601.47;5010375;28;20408;-67
2022/05/27 03:47:31;;;;;;;0.10;0.10;;;;;;;32.93;29.44;97592.66;5013779;28;20038;-65
2022/05/27 03:49:57;;;;;;;0.13;0.13;;;;;;;33.80;29.13;97592.09;5013983;28;20037;-66
2022/05/27 03:52:25;;;;;;;0.10;0.10;;;;;;;34.25;28.66;97591.22;5012179;28;20080;-67
2022/05/27 03:54:51;;;;;;;0.10;0.10;;;;;;;34.53;28.75;97605.19;5013484;28;20527;-66
2022/05/27 03:57:16;;;;;;;0.10;0.10;;;;;;;34.79;28.86;97593.50;5013759;28;20065;-66
2022/05/27 03:59:42;;;;;;;0.20;0.20;;;;;;;34.62;29.51;97589.63;5013666;28;20042;-65
2022/05/27 04:02:09;;;;;;;0.15;0.15;;;;;;;34.46;29.79;97605.25;5013323;28;20326;-67
2022/05/27 04:04:35;;;;;;;0.10;0.10;;;;;;;34.30;29.84;97597.31;5018291;28;20128;-71
2022/05/27 04:07:00;;;;;;;0.10;0.10;;;;;;;34.50;29.80;97596.69;5023877;28;20112;-66
2022/05/27 04:09:27;;;;;;;0.20;0.20;;;;;;;34.66;29.46;97594.03;5032708;28;20033;-67
2022/05/27 04:11:54;;;;;;;0.10;0.10;;;;;;;34.48;30.03;97585.72;5032686;28;20041;-65
2022/05/27 04:14:20;;;;;;;0.20;0.20;;;;;;;35.04;29.04;97576.84;5031833;28;20508;-67
2022/05/27 04:16:48;;;;;;;0.10;0.10;;;;;;;35.68;29.02;97596.28;5031716;28;20480;-66
2022/05/27 04:19:16;;;;;;;0.10;0.10;;;;;;;35.61;28.76;97586.56;5032143;28;20090;-65
2022/05/27 04:21:42;;;;;;;0.13;0.13;;;;;;;34.86;29.36;97590.53;5031894;28;20033;-67
2022/05/27 04:24:08;;;;;;;0.10;0.10;;;;;;;33.92;30.73;97582.22;5031835;28;20033;-67
2022/05/27 04:26:35;;;;;;;0.10;0.10;;;;;;;33.55;30.94;97578.84;5031987;28;20033;-67
2022/05/27 04:29:00;;;;;;;0.10;0.10;;;;;;;33.18;31.39;97583.97;5031763;28;20044;-66
2022/05/27 04:31:26;;;;;;;0.10;0.10;;;;;;;32.51;31.85;97582.28;5031727;28;20037;-66
2022/05/27 04:33:52;;;;;;;0.10;0.10;;;;;;;32.22;31.79;97576.72;5031434;28;20354;-67
2022/05/27 04:36:18;;;;;;;0.28;0.25;;;;;;;32.89;30.80;97577.69;5031616;28;20037;-66
2022/05/27 04:38:44;;;;;;;0.10;0.10;;;;;;;32.93;30.56;97580.47;5031990;28;20041;-67
2022/05/27 04:41:09;;;;;;;0.10;0.10;;;;;;;31.86;31.64;97579.56;5031547;28;20041;-67
2022/05/27 04:43:35;;;;;;;0.10;0.10;;;;;;;31.58;31.99;97579.22;5031313;28;20045;-66
2022/05/27 04:46:02;;;;;;;0.10;0.10;;;;;;;32.11;31.11;97571.88;5031002;28;20073;-67
2022/05/27 04:48:28;;;;;;;0.10;0.10;;;;;;;33.11;29.74;97584.03;5031347;28;20088;-68
2022/05/27 04:50:54;;;;;;;0.10;0.10;;;;;;;32.80;29.91;97577.31;5031367;28;20487;-68
2022/05/27 04:53:20;;;;;;;0.10;0.10;;;;;;;32.42;30.55;97575.00;5031348;28;20033;-67
2022/05/27 04:55:46;;;;;;;0.10;0.10;;;;;;;32.84;29.40;97576.06;5030890;28;20060;-65
2022/05/27 04:58:11;;;;;;;0.10;0.10;;;;;;;32.81;29.51;97571.19;5031259;28;20120;-66
2022/05/27 05:00:43;;;;;;;0.13;0.13;;;;;;;33.18;29.13;97563.25;5031101;28;20029;-65
2022/05/27 05:03:11;;;;;;;0.10;0.10;;;;;;;33.56;28.72;97571.94;5028200;28;20115;-66
2022/05/27 05:05:37;;;;;;;0.10;0.10;;;;;;;33.77;28.30;97562.41;5019200;28;20596;-67
2022/05/27 05:08:07;;;;;;;0.10;0.10;;;;;;;33.50;28.33;97571.56;5030101;28;20029;-67
2022/05/27 05:10:34;;;;;;;0.10;0.10;;;;;;;33.59;28.35;97568.25;5029984;28;20025;-66
2022/05/27 05:13:01;;;;;;;0.10;0.10;;;;;;;33.98;28.02;97569.13;5031069;28;20039;-65
2022/05/27 05:15:28;;;;;;;0.10;0.10;;;;;;;34.29;27.70;97563.53;5030501;28;20035;-66
2022/05/27 05:17:55;;;;;;;0.10;0.10;;;;;;;34.32;27.59;97560.66;5031067;28;20057;-66
2022/05/27 05:20:25;;;;;;;0.10;0.10;;;;;;;34.00;27.54;97552.44;5031126;28;20041;-66
2022/05/27 05:22:51;;;;;;;0.15;0.15;;;;;;;33.56;28.39;97571.16;5031033;28;20048;-65
2022/05/27 05:25:17;;;;;;;0.20;0.20;;;;;;;33.43;28.04;97546.03;5031126;28;20049;-67
2022/05/27 05:27:43;;;;;;;0.10;0.10;;;;;;;33.94;27.69;97552.09;5030766;28;20120;-66
2022/05/27 05:30:15;;;;;;;0.10;0.10;;;;;;;34.08;27.14;97536.09;5031025;28;20037;-66
2022/05/27 05:32:41;;;;;;;0.10;0.10;;;;;;;34.23;27.16;97546.91;5031058;28;20040;-65
2022/05/27 05:35:09;;;;;;;0.10;0.10;;;;;;;34.61;27.03;97543.19;5031060;28;20037;-68
2022/05/27 05:37:35;;;;;;;0.10;0.10;;;;;;;34.78;27.00;97547.06;5031050;28;20033;-69
2022/05/27 05:40:02;;;;;;;0.20;0.20;;;;;;;34.38;27.02;97536.16;5030995;28;20077;-67
2022/05/27 05:42:28;;;;;;;0.10;0.10;;;;;;;33.28;27.99;97553.06;5030932;28;20060;-67
2022/05/27 05:44:55;;;;;;;10.05;0.45;;;;;;;30.52;31.15;97547.38;5030007;28;20480;-68
2022/05/27 05:47:21;;;;;;;0.45;0.45;;;;;;;27.66;34.41;97542.16;5030788;28;20044;-66
2022/05/27 05:49:47;;;;;;;0.20;0.20;;;;;;;25.39;36.91;97538.44;5031038;28;20037;-66
2022/05/27 05:52:13;;;;;;;0.10;0.10;;;;;;;23.48;38.70;97538.66;5030823;28;20120;-66
2022/05/27 05:55:00;;;;;;;0.28;0.28;;;;;;;22.00;40.03;97527.13;5038984;28;20040;-66
2022/05/27 05:57:25;;;;;;;0.28;0.28;;;;;;;20.70;40.97;97548.97;5044363;28;20032;-66
2022/05/27 05:59:51;;;;;;;0.10;0.10;;;;;;;19.94;41.20;97551.19;5035481;28;20033;-67
2022/05/27 06:02:17;;;;;;;0.10;0.10;;;;;;;19.67;40.78;97541.13;5035353;28;20033;-66
2022/05/27 06:04:42;;;;;;;0.10;0.10;;;;;;;19.57;39.62;97543.09;5035348;28;20099;-67
2022/05/27 06:07:08;;;;;;;0.10;0.10;;;;;;;19.37;39.15;97533.38;5035418;28;20057;-66
2022/05/27 06:09:34;;;;;;;0.65;0.22;;;;;;;19.28;38.64;97537.31;5034875;28;20044;-66
2022/05/27 06:12:02;;;;;;;0.20;0.20;;;;;;;19.32;37.84;97516.84;5034868;28;20128;-66
2022/05/27 06:14:28;;;;;;;0.30;0.30;;;;;;;19.26;37.51;97527.31;5034954;28;20439;-67
2022/05/27 06:16:54;;;;;;;0.20;0.20;;;;;;;18.98;37.49;97531.50;5035138;28;20399;-66
2022/05/27 06:19:19;;;;;;;0.10;0.10;;;;;;;18.73;37.31;97529.06;5035140;28;20087;-65
2022/05/27 06:21:46;;;;;;;0.10;0.10;;;;;;;18.47;37.46;97526.13;5034873;28;20565;-66
2022/05/27 06:24:12;;;;;;;0.10;0.10;;;;;;;18.46;36.86;97524.50;5034753;28;20037;-66
2022/05/27 06:26:38;;;;;;;0.10;0.10;;;;;;;18.55;36.50;97525.38;5033667;28;20116;-67
2022/05/27 06:34:34;;;;;;;0.30;0.20;;;;;;;18.10;36.33;97519.84;5034913;28;20036;-67
2022/05/27 06:37:14;;;;;;;0.20;0.20;;;;;;;17.85;36.56;97518.50;5034331;28;20056;-66
2022/05/27 06:39:41;;;;;;;1.05;0.40;;;;;;;17.91;35.99;97513.69;5034550;28;20148;-66
2022/05/27 06:42:10;;;;;;;0.55;0.55;;;;;;;18.02;35.79;97523.38;5034704;28;20455;-68
2022/05/27 06:44:36;;;;;;;0.95;0.47;;;;;;;17.93;35.63;97519.72;5034383;28;20143;-66
2022/05/27 06:47:03;;;;;;;0.20;0.20;;;;;;;17.88;35.74;97517.06;5033751;28;20349;-68
2022/05/27 06:49:29;;;;;;;0.20;0.20;;;;;;;17.95;35.24;97517.47;5034632;28;20037;-69
2022/05/27 06:51:55;;;;;;;0.15;0.15;;;;;;;18.15;35.01;97530.00;5034538;28;20041;-69
2022/05/27 06:54:22;;;;;;;0.25;0.25;;;;;;;18.45;34.50;97519.28;5034859;28;20447;-68
2022/05/27 06:56:52;;;;;;;0.20;0.20;;;;;;;18.54;34.32;97518.16;5034805;28;20539;-68
2022/05/27 06:59:20;;;;;;;0.17;0.17;;;;;;;18.48;34.24;97524.19;5034670;28;20407;-67
2022/05/27 07:01:47;;;;;;;0.30;0.30;;;;;;;18.63;34.22;97525.75;5034241;28;20037;-67
2022/05/27 07:04:13;;;;;;;0.20;0.20;;;;;;;18.75;33.93;97528.72;5034169;28;20041;-67
2022/05/27 07:06:44;;;;;;;0.30;0.30;;;;;;;18.78;33.77;97507.81;5034468;28;20385;-68
2022/05/27 07:09:12;;;;;;;0.15;0.15;;;;;;;18.86;33.66;97504.25;5034381;28;20480;-67
2022/05/27 07:11:39;;;;;;;0.30;0.30;;;;;;;18.94;33.62;97495.13;5034525;28;20037;-66
2022/05/27 07:14:05;;;;;;;0.15;0.15;;;;;;;18.77;33.71;97486.69;5034169;28;20092;-68
2022/05/27 07:16:31;;;;;;;0.30;0.30;;;;;;;18.63;33.89;97493.19;5032587;28;20075;-67
2022/05/27 07:18:57;;;;;;;0.10;0.10;;;;;;;18.46;34.12;97496.72;5034228;28;20053;-69
2022/05/27 07:21:23;;;;;;;0.10;0.10;;;;;;;18.10;34.62;97503.19;5034515;28;20049;-67
2022/05/27 07:23:53;;;;;;;0.15;0.15;;;;;;;17.90;34.58;97493.41;5034112;28;20041;-67
2022/05/27 07:26:21;;;;;;;0.10;0.10;;;;;;;17.78;34.60;97502.25;5017706;28;20440;-66
2022/05/27 07:28:47;;;;;;;0.45;0.45;;;;;;;17.65;34.94;97497.59;4994994;28;20172;-69
2022/05/27 07:31:13;;;;;;;0.10;0.10;;;;;;;17.66;34.59;97502.00;5002512;28;20026;-68
2022/05/27 07:33:40;;;;;;;0.10;0.10;;;;;;;17.68;34.63;97502.50;5015014;28;20447;-67
2022/05/27 07:36:06;;;;;;;0.13;0.13;;;;;;;17.83;34.32;97504.13;5019926;28;20108;-68
2022/05/27 07:38:32;;;;;;;0.15;0.15;;;;;;;18.14;33.80;97509.75;5013062;28;20030;-68
2022/05/27 07:40:58;;;;;;;0.10;0.10;;;;;;;18.27;33.42;97505.28;5011626;28;20125;-70
2022/05/27 07:43:23;;;;;;;0.10;0.10;;;;;;;18.24;33.28;97496.75;5040877;28;20041;-68
2022/05/27 07:45:49;;;;;;;0.28;0.28;;;;;;;18.14;33.63;97511.72;5018029;28;20531;-67
2022/05/27 07:48:15;;;;;;;0.10;0.10;;;;;;;18.12;33.64;97503.69;5012576;28;20045;-68
2022/05/27 07:50:41;;;;;;;0.10;0.10;;;;;;;18.25;33.42;97506.72;5013741;28;20412;-68
2022/05/27 07:53:07;;;;;;;0.40;0.40;;;;;;;18.29;33.35;97516.88;5024978;28;20049;-67
2022/05/27 07:55:33;;;;;;;0.20;0.20;;;;;;;18.19;33.57;97511.59;5012997;28;20041;-67
2022/05/27 07:57:59;;;;;;;0.68;0.68;;;;;;;17.91;33.89;97510.91;5020527;28;20034;-66
2022/05/27 08:00:31;;;;;;;0.10;0.10;;;;;;;17.88;33.94;97522.59;5032843;28;20087;-68
2022/05/27 08:02:57;;;;;;;0.20;0.20;;;;;;;17.91;33.81;97517.25;5032919;28;20030;-68
2022/05/27 08:05:27;;;;;;;1.30;0.43;;;;;;;17.97;33.54;97524.31;5013902;28;20064;-66
2022/05/27 08:07:54;;;;;;;0.40;0.30;;;;;;;17.95;33.42;97525.81;5012956;28;20041;-68
2022/05/27 08:10:23;;;;;;;0.10;0.10;;;;;;;18.05;33.51;97522.78;5012646;28;20077;-66
2022/05/27 08:12:49;;;;;;;0.10;0.10;;;;;;;18.31;33.14;97513.78;5013219;28;20068;-68
2022/05/27 08:15:15;;;;;;;0.30;0.30;;;;;;;18.51;32.78;97513.25;5029498;28;20543;-68
2022/05/27 08:17:42;;;;;;;0.30;0.30;;;;;;;18.60;32.73;97527.19;5033471;28;20492;-68
2022/05/27 08:20:11;;;;;;;0.15;0.15;;;;;;;18.65;32.53;97518.69;5017791;28;20033;-67
2022/05/27 08:22:37;;;;;;;0.10;0.10;;;;;;;18.83;32.58;97518.78;5029691;28;20041;-68
2022/05/27 08:25:03;;;;;;;0.20;0.20;;;;;;;18.97;32.38;97521.50;5032130;28;20046;-69
2022/05/27 08:27:29;;;;;;;0.20;0.20;;;;;;;19.03;32.29;97523.00;5033292;28;20010;-69
2022/05/27 08:29:55;;;;;;;0.20;0.20;;;;;;;19.20;32.26;97536.97;5033840;28;20057;-69
2022/05/27 08:32:21;;;;;;;0.20;0.20;;;;;;;19.48;31.79;97538.66;5046059;28;20029;-70
2022/05/27 08:40:57;;;;;;;0.60;0.60;;;;;;;19.80;31.49;97531.03;5029460;28;20095;-69
2022/05/27 08:43:30;;;;;;;0.20;0.20;;;;;;;19.80;31.55;97542.97;5029558;28;20103;-68
2022/05/27 08:45:56;;;;;;;0.10;0.10;;;;;;;19.65;31.89;97541.47;5030846;28;20035;-67
2022/05/27 08:48:25;;;;;;;2.17;0.32;;;;;;;19.60;31.84;97534.09;5027568;28;20034;-68
2022/05/27 08:51:06;;;;;;;0.60;0.30;;;;;;;19.62;32.01;97533.75;5013480;28;20033;-69
2022/05/27 08:53:53;;;;;;;0.20;0.20;;;;;;;19.53;32.04;97535.72;5015935;28;20037;-67
2022/05/27 08:59:27;;;;;;;0.20;0.20;;;;;;;19.15;32.57;97545.44;5013211;28;20060;-68
2022/05/27 09:02:12;;;;;;;0.10;0.10;;;;;;;19.28;32.20;97528.97;5029418;28;20033;-67
2022/05/27 09:04:48;;;;;;;0.40;0.40;;;;;;;19.43;32.01;97536.84;5032294;28;20042;-66
2022/05/27 09:07:41;;;;;;;0.40;0.20;;;;;;;19.55;31.94;97537.03;5031861;28;20029;-68
2022/05/27 09:10:10;;;;;;;0.10;0.10;;;;;;;;;;5031885;28;20055;-66
2022/05/27 09:13:15;;;;;;;0.10;0.10;;;;;;;19.43;32.04;97520.13;5032006;28;20037;-66
2022/05/27 09:16:01;;;;;;;0.57;0.57;;;;;;;19.23;32.23;97527.97;5027598;28;20099;-66
2022/05/27 09:18:29;;;;;;;0.60;0.60;;;;;;;19.11;32.39;97538.06;5031504;28;20049;-69
2022/05/27 09:21:05;;;;;;;0.35;0.35;;;;;;;19.11;32.30;97540.84;5031525;28;20033;-68
2022/05/27 09:23:49;;;;;;;0.10;0.10;;;;;;;19.02;32.45;97536.09;5031439;28;20128;-69
2022/05/27 09:26:27;;;;;;;0.25;0.25;;;;;;;18.80;32.64;97536.94;5031636;28;20048;-67
2022/05/27 09:29:11;;;;;;;0.10;0.10;;;;;;;18.54;32.95;97532.06;5027973;28;20041;-68
2022/05/27 09:31:46;;;;;;;0.15;0.15;;;;;;;18.37;33.05;97530.03;5031923;28;20442;-69
2022/05/27 09:34:13;;;;;;;0.10;0.10;;;;;;;18.38;33.11;97520.53;5030952;28;20064;-71
2022/05/27 09:36:53;;;;;;;1.30;0.63;;;;;;;18.37;32.98;97523.63;5030230;28;20021;-68
2022/05/27 09:39:21;;;;;;;0.45;0.35;;;;;;;18.43;32.86;97525.13;5017216;28;20029;-68
2022/05/27 09:42:08;;;;;;;0.40;0.40;;;;;;;18.68;32.46;97529.22;5018990;28;20033;-69
2022/05/27 09:44:35;;;;;;;0.52;0.52;;;;;;;18.90;32.43;97519.16;5014300;28;20041;-67
2022/05/27 09:47:03;;;;;;;0.10;0.10;;;;;;;18.95;32.20;97523.75;5013102;28;20125;-64
2022/05/27 09:49:31;;;;;;;0.30;0.30;;;;;;;18.88;32.18;97530.63;5014156;28;20041;-70
2022/05/27 09:51:57;;;;;;;0.10;0.10;;;;;;;18.83;32.10;97527.97;5012761;28;20084;-68
2022/05/27 09:54:43;;;;;;;0.10;0.10;;;;;;;18.89;32.18;97528.69;5019370;28;20033;-68
2022/05/27 09:57:13;;;;;;;0.47;0.47;;;;;;;18.68;32.56;97531.16;5029768;28;20038;-68
2022/05/27 09:59:56;;;;;;;0.20;0.20;;;;;;;18.32;32.89;97532.09;5033553;28;20112;-68
2022/05/27 10:02:28;;;;;;;0.20;0.20;;;;;;;18.20;33.10;97527.13;5032519;28;20038;-68
2022/05/27 10:04:59;;;;;;;0.30;0.30;;;;;;;18.42;32.80;97514.31;5014114;28;20104;-69
2022/05/27 10:07:26;;;;;;;0.10;0.10;;;;;;;18.72;32.32;97529.38;5014885;28;20117;-70
2022/05/27 10:09:52;;;;;;;0.20;0.20;;;;;;;19.01;31.93;97526.09;5015033;28;20038;-68
2022/05/27 10:12:33;;;;;;;1.08;0.15;;;;;;;19.21;31.63;97524.69;5014803;28;20038;-68
2022/05/27 10:14:59;;;;;;;0.38;0.38;;;;;;;19.37;31.48;97527.81;5013894;28;20053;-67
2022/05/27 10:17:36;;;;;;;1.45;0.90;;;;;;;19.40;31.55;97515.22;5014428;28;20084;-67
2022/05/27 10:20:22;;;;;;;0.90;0.75;;;;;;;19.22;31.86;97515.19;5014732;28;20038;-66
2022/05/27 10:23:17;;;;;;;0.20;0.20;;;;;;;19.12;31.97;97509.09;5015438;28;20057;-67
2022/05/27 10:25:44;;;;;;;0.10;0.10;;;;;;;19.03;32.22;97520.22;5014473;28;20121;-68
2022/05/27 10:28:23;;;;;;;0.20;0.20;;;;;;;18.98;32.10;97517.59;5014278;28;20088;-66
2022/05/27 10:30:56;;;;;;;0.20;0.20;;;;;;;18.95;32.22;97512.63;5014308;28;20033;-67
2022/05/27 10:33:36;;;;;;;0.20;0.20;;;;;;;18.85;32.30;97514.53;5014570;28;20036;-67
2022/05/27 10:36:02;;;;;;;0.17;0.17;;;;;;;18.80;32.39;97513.88;5012802;28;20050;-65
2022/05/27 10:38:44;;;;;;;0.17;0.17;;;;;;;18.94;32.25;97511.84;5013727;28;20059;-67
2022/05/27 10:41:52;;;;;;;0.20;0.20;;;;;;;18.90;32.25;97502.47;5013707;28;20491;-68
2022/05/27 10:44:29;;;;;;;0.30;0.30;;;;;;;18.79;32.18;97513.06;5014445;28;20135;-65
2022/05/27 10:46:57;;;;;;;0.20;0.20;;;;;;;18.78;32.24;97508.63;5013566;28;20041;-66
2022/05/27 10:49:33;;;;;;;0.20;0.20;;;;;;;18.74;32.23;97511.25;5014099;28;20165;-68
2022/05/27 10:52:17;;;;;;;0.20;0.20;;;;;;;18.71;32.31;97505.47;5013827;28;20053;-67
2022/05/27 10:54:48;;;;;;;;;;;;;;;18.68;32.46;97500.56;5020916;28;20048;-68
2022/05/27 11:03:30;;;;;;;0.47;0.47;;;;;;;18.56;32.51;97499.22;5015606;28;20099;-67
2022/05/27 11:06:17;;;;;;;0.17;0.17;;;;;;;18.48;32.50;97496.41;5033233;28;20043;-67
2022/05/27 11:09:07;;;;;;;0.70;0.28;;;;;;;18.42;32.44;97492.94;5016340;28;20496;-68
2022/05/27 11:12:10;;;;;;;1.10;1.10;;;;;;;18.32;32.53;97490.44;5012122;28;20068;-68
2022/05/27 11:15:11;;;;;;;0.10;0.10;;;;;;;18.21;32.62;97489.84;5028375;28;20088;-68
2022/05/27 11:18:01;;;;;;;0.30;0.30;;;;;;;18.17;32.67;97484.13;5018578;28;20038;-67
2022/05/27 11:20:56;;;;;;;2.97;0.47;;;;;;;18.17;32.71;97486.91;5017292;28;20171;-68
2022/05/27 11:23:46;;;;;;;0.25;0.25;;;;;;;18.13;32.66;97480.34;5013420;28;20440;-68
2022/05/27 11:26:53;;;;;;;0.20;0.20;;;;;;;18.13;32.48;97474.78;5012840;28;20038;-66
2022/05/27 11:29:32;;;;;;;0.65;0.65;;;;;;;18.09;32.55;97495.97;5032821;28;20148;-68
2022/05/27 11:32:11;;;;;;;0.10;0.10;;;;;;;18.06;32.50;97482.72;5024498;28;20492;-67
2022/05/27 11:35:00;;;;;;;0.40;0.40;;;;;;;18.10;32.48;97480.97;5012749;28;20036;-66
2022/05/27 11:37:48;;;;;;;0.10;0.10;;;;;;;18.16;32.67;97476.91;5013288;28;20084;-66
2022/05/27 11:40:37;;;;;;;2.03;1.92;;;;;;;18.26;32.38;97463.91;5010385;28;20440;-67
2022/05/27 11:43:41;;;;;;;0.20;0.20;;;;;;;18.35;32.19;97473.13;5012800;28;20037;-68
2022/05/27 11:46:22;;;;;;;0.20;0.20;;;;;;;18.42;32.36;97475.41;5011514;28;20088;-67
2022/05/27 11:49:24;;;;;;;0.10;0.10;;;;;;;18.36;32.17;97472.78;5012867;28;20089;-68
2022/05/27 11:52:05;;;;;;;0.20;0.20;;;;;;;18.35;32.42;97475.88;5011724;28;20442;-67
2022/05/27 11:54:42;;;;;;;0.47;0.47;;;;;;;18.34;32.26;97469.53;5015384;28;20049;-67
2022/05/27 11:57:32;;;;;;;0.20;0.20;;;;;;;18.34;32.23;97458.41;5023310;28;20523;-66
2022/05/27 12:00:03;;;;;;;1.25;0.32;;;;;;;18.34;32.30;97469.53;5002951;28;20041;-68
2022/05/27 12:02:45;;;;;;;0.25;0.25;;;;;;;18.35;32.35;97464.78;5020343;28;20044;-69
2022/05/27 12:05:19;;;;;;;1.33;0.52;;;;;;;18.35;32.33;97456.44;5011665;28;20124;-68
2022/05/27 12:08:15;;;;;;;0.20;0.20;;;;;;;18.35;32.35;97462.00;5006439;28;20034;-67
2022/05/27 12:10:52;;;;;;;0.43;0.43;;;;;;;18.29;32.26;97454.94;5008594;28;20049;-66
2022/05/27 12:13:43;;;;;;;0.10;0.10;;;;;;;18.27;32.38;97457.19;5002547;28;20034;-63
2022/05/27 12:16:19;;;;;;;0.15;0.15;;;;;;;18.25;32.35;97443.63;5013262;28;20030;-69
2022/05/27 12:19:00;;;;;;;0.20;0.20;;;;;;;18.27;32.40;97454.41;5010963;28;20120;-68
2022/05/27 12:21:30;;;;;;;0.10;0.10;;;;;;;18.26;32.39;97458.38;5012161;28;20059;-67
2022/05/27 12:24:18;;;;;;;0.20;0.20;;;;;;;18.28;32.14;97453.28;5026751;28;20444;-65
2022/05/27 12:26:46;;;;;;;11.70;1.35;;;;;;;18.29;32.28;97455.75;5011470;28;20041;-68
2022/05/27 12:29:13;;;;;;;0.10;0.10;;;;;;;18.32;32.14;97457.09;5011518;28;20087;-67
2022/05/27 12:31:40;;;;;;;0.10;0.10;;;;;;;18.33;32.24;97444.81;5011721;28;20575;-67
2022/05/27 12:34:27;;;;;;;0.10;0.10;;;;;;;18.33;32.33;97451.22;5011975;28;20460;-68
2022/05/27 12:37:13;;;;;;;0.10;0.10;;;;;;;18.33;32.32;97448.44;5011643;28;20044;-67
2022/05/27 12:39:42;;;;;;;0.10;0.10;;;;;;;18.35;32.25;97448.09;5011446;28;20041;-66
2022/05/27 12:42:24;;;;;;;1.10;1.00;;;;;;;18.37;32.22;97451.38;5011122;28;20112;-68
2022/05/27 12:44:51;;;;;;;0.10;0.10;;;;;;;18.38;32.24;97447.47;5010751;28;20045;-66
2022/05/27 12:47:28;;;;;;;0.20;0.20;;;;;;;18.38;32.13;97453.03;5011072;28;20034;-67
2022/05/27 12:50:21;;;;;;;0.10;0.10;;;;;;;18.35;32.05;97445.31;5011185;28;20461;-66
2022/05/27 12:52:50;;;;;;;0.10;0.10;;;;;;;18.30;32.20;97437.13;5009834;28;20050;-67
2022/05/27 13:00:55;;;;;;;0.10;0.10;;;;;;;18.30;32.32;97445.44;5010734;28;20049;-67
2022/05/27 13:01:23;;;;;;;;;;;;;;;18.28;32.19;97431.06;5009737;28;20128;-67
2022/05/27 13:03:56;;;;;;;0.10;0.10;;;;;;;18.21;32.35;97425.94;5008885;28;20009;-67
2022/05/27 13:06:22;;;;;;;0.33;0.17;;;;;;;18.22;32.22;97435.94;5009438;28;20117;-66
2022/05/27 13:08:50;;;;;;;0.10;0.10;;;;;;;18.21;32.27;97443.47;5009546;28;20041;-66
2022/05/27 13:11:39;;;;;;;0.20;0.20;;;;;;;18.21;32.35;97432.34;5009376;28;20042;-65
2022/05/27 13:14:04;;;;;;;0.10;0.10;;;;;;;18.21;32.41;97437.91;5006030;28;20423;-66
2022/05/27 13:16:54;;;;;;;0.10;0.10;;;;;;;18.19;32.15;97426.28;5008407;28;20077;-67
2022/05/27 13:19:41;;;;;;;0.20;0.20;;;;;;;18.18;32.40;97424.66;5011430;28;20049;-66
2022/05/27 13:22:37;;;;;;;0.20;0.20;;;;;;;18.18;32.27;97429.38;5011311;28;20037;-67
2022/05/27 13:25:40;;;;;;;0.10;0.10;;;;;;;18.18;32.20;97433.00;5010570;28;20076;-66
2022/05/27 13:28:30;;;;;;;0.10;0.10;;;;;;;18.16;32.44;97426.91;5009888;28;20041;-66
2022/05/27 13:31:04;;;;;;;0.10;0.10;;;;;;;18.13;32.37;97424.78;5010753;28;20039;-65
2022/05/27 13:33:37;;;;;;;0.13;0.13;;;;;;;18.15;32.28;97438.34;5010971;28;20029;-65
2022/05/27 13:36:17;;;;;;;0.40;0.30;;;;;;;18.17;32.29;97436.09;5011227;28;20500;-66
2022/05/27 13:38:57;;;;;;;0.13;0.13;;;;;;;18.17;32.31;97434.13;5011239;28;20065;-66
2022/05/27 13:41:27;;;;;;;0.38;0.38;;;;;;;18.19;32.36;97434.59;5011122;28;20041;-63